Hovedside
METAR-TAF:

METAR-TAF

Lufthavner :

Enontekiö lufthavn

Enontekis, Finland

breddegrad: 68-21-52N, lengdegrad: 023-25-39E, høyde over havet: 308 m

Gjeldene værobservasjon

Denne rapporten ble laget for 22 minutter siden, klokken 03:50 UTC
Vind 11 kt fra Nord
Temperatur 7°C
Luftfuktighet 93%
Trykk 994 hPa
Sikt 10 km eller mer
Overskyet i en høyde av 1000 ft
regn

METAR: EFET 230350Z AUTO 36011KT 9999 RA OVC010 07/06 Q0994

Tid: 07:12 (04:12 UTC)


TAF: fraværende

Værobservasjoner og værvarsel for over 4000 flyplasser (METAR- og TAF-rapporter).

Tilgjengelige stasjoner er representert av de røde og gule prikkene på kartet.

Hold musepekeren over prikken for å se navnet på stasjonen.

Klikk så for å se værobservasjoner og -varsler.

For å forandre kartet kan du klikke på den grønne knappen med svart kryss for å zoome inn, på den grønne knappen med strek for å zoome ut, eller på de grønne pilene for å se tilstøtende kart.


METAR-TAF: